sensor_id;sensor_type;location;lat;lon;timestamp;temperature;humidity
63260;DHT22;49390;51.380;0.098;2023-12-20T00:00:37;6.00;99.90
63260;DHT22;49390;51.380;0.098;2023-12-20T00:03:25;6.00;99.90
63260;DHT22;49390;51.380;0.098;2023-12-20T00:05:53;6.00;99.90
63260;DHT22;49390;51.380;0.098;2023-12-20T00:08:21;6.00;99.90
63260;DHT22;49390;51.380;0.098;2023-12-20T00:10:48;6.00;99.90
63260;DHT22;49390;51.380;0.098;2023-12-20T00:13:16;6.00;99.90
63260;DHT22;49390;51.380;0.098;2023-12-20T00:15:44;6.00;99.90
63260;DHT22;49390;51.380;0.098;2023-12-20T00:18:12;6.00;99.90
63260;DHT22;49390;51.380;0.098;2023-12-20T00:20:40;6.00;99.90
63260;DHT22;49390;51.380;0.098;2023-12-20T00:23:08;6.00;99.90
63260;DHT22;49390;51.380;0.098;2023-12-20T00:25:36;6.00;99.90
63260;DHT22;49390;51.380;0.098;2023-12-20T00:28:04;6.00;99.90
63260;DHT22;49390;51.380;0.098;2023-12-20T00:30:31;6.00;99.90
63260;DHT22;49390;51.380;0.098;2023-12-20T00:32:59;6.00;99.90
63260;DHT22;49390;51.380;0.098;2023-12-20T00:35:27;6.00;99.90
63260;DHT22;49390;51.380;0.098;2023-12-20T00:37:55;6.00;99.90
63260;DHT22;49390;51.380;0.098;2023-12-20T00:40:24;5.90;99.90
63260;DHT22;49390;51.380;0.098;2023-12-20T00:42:52;6.00;99.90
63260;DHT22;49390;51.380;0.098;2023-12-20T00:45:19;5.90;99.90
63260;DHT22;49390;51.380;0.098;2023-12-20T00:47:47;5.90;99.90
63260;DHT22;49390;51.380;0.098;2023-12-20T00:50:16;5.90;99.90
63260;DHT22;49390;51.380;0.098;2023-12-20T00:52:44;5.90;99.90
63260;DHT22;49390;51.380;0.098;2023-12-20T00:55:11;6.00;99.90
63260;DHT22;49390;51.380;0.098;2023-12-20T00:57:39;5.90;99.90
63260;DHT22;49390;51.380;0.098;2023-12-20T01:00:07;5.90;99.90
63260;DHT22;49390;51.380;0.098;2023-12-20T01:02:37;5.90;99.90
63260;DHT22;49390;51.380;0.098;2023-12-20T01:05:05;5.90;99.90
63260;DHT22;49390;51.380;0.098;2023-12-20T01:07:34;5.90;99.90
63260;DHT22;49390;51.380;0.098;2023-12-20T01:10:02;5.90;99.90
63260;DHT22;49390;51.380;0.098;2023-12-20T01:12:31;5.90;99.90
63260;DHT22;49390;51.380;0.098;2023-12-20T01:14:58;5.90;99.90
63260;DHT22;49390;51.380;0.098;2023-12-20T01:17:26;5.90;99.90
63260;DHT22;49390;51.380;0.098;2023-12-20T01:19:54;5.90;99.90
63260;DHT22;49390;51.380;0.098;2023-12-20T01:22:22;5.90;99.90
63260;DHT22;49390;51.380;0.098;2023-12-20T01:24:50;5.90;99.90
63260;DHT22;49390;51.380;0.098;2023-12-20T01:27:18;5.90;99.90
63260;DHT22;49390;51.380;0.098;2023-12-20T01:29:46;5.90;99.90
63260;DHT22;49390;51.380;0.098;2023-12-20T01:32:14;5.90;99.90
63260;DHT22;49390;51.380;0.098;2023-12-20T01:34:42;5.90;99.90
63260;DHT22;49390;51.380;0.098;2023-12-20T01:37:10;5.90;99.90
63260;DHT22;49390;51.380;0.098;2023-12-20T01:39:37;5.90;99.90
63260;DHT22;49390;51.380;0.098;2023-12-20T01:42:05;5.90;99.90
63260;DHT22;49390;51.380;0.098;2023-12-20T01:44:33;5.90;99.90
63260;DHT22;49390;51.380;0.098;2023-12-20T01:47:01;5.90;99.90
63260;DHT22;49390;51.380;0.098;2023-12-20T01:49:29;5.90;99.90
63260;DHT22;49390;51.380;0.098;2023-12-20T01:51:57;5.90;99.90
63260;DHT22;49390;51.380;0.098;2023-12-20T01:54:25;5.90;99.90
63260;DHT22;49390;51.380;0.098;2023-12-20T01:56:53;5.90;99.90
63260;DHT22;49390;51.380;0.098;2023-12-20T01:59:21;6.00;99.90
63260;DHT22;49390;51.380;0.098;2023-12-20T02:01:49;6.00;99.90
63260;DHT22;49390;51.380;0.098;2023-12-20T02:04:17;6.00;99.90
63260;DHT22;49390;51.380;0.098;2023-12-20T02:06:46;6.10;99.90
63260;DHT22;49390;51.380;0.098;2023-12-20T02:09:15;6.00;99.90
63260;DHT22;49390;51.380;0.098;2023-12-20T02:11:43;6.00;99.90
63260;DHT22;49390;51.380;0.098;2023-12-20T02:14:11;6.00;99.90
63260;DHT22;49390;51.380;0.098;2023-12-20T02:16:39;6.00;99.90
63260;DHT22;49390;51.380;0.098;2023-12-20T02:19:14;6.00;99.90
63260;DHT22;49390;51.380;0.098;2023-12-20T02:21:42;6.10;99.90
63260;DHT22;49390;51.380;0.098;2023-12-20T02:24:10;6.00;99.90
63260;DHT22;49390;51.380;0.098;2023-12-20T02:26:38;6.10;99.90
63260;DHT22;49390;51.380;0.098;2023-12-20T02:29:06;6.10;99.90
63260;DHT22;49390;51.380;0.098;2023-12-20T02:31:34;6.10;99.90
63260;DHT22;49390;51.380;0.098;2023-12-20T02:34:01;6.10;99.90
63260;DHT22;49390;51.380;0.098;2023-12-20T02:36:29;6.10;99.90
63260;DHT22;49390;51.380;0.098;2023-12-20T02:38:57;6.10;99.90
63260;DHT22;49390;51.380;0.098;2023-12-20T02:41:25;6.10;99.90
63260;DHT22;49390;51.380;0.098;2023-12-20T02:43:52;6.10;99.90
63260;DHT22;49390;51.380;0.098;2023-12-20T02:46:20;6.10;99.90
63260;DHT22;49390;51.380;0.098;2023-12-20T02:48:48;6.10;99.90
63260;DHT22;49390;51.380;0.098;2023-12-20T02:51:16;6.10;99.90
63260;DHT22;49390;51.380;0.098;2023-12-20T02:53:44;6.10;99.90
63260;DHT22;49390;51.380;0.098;2023-12-20T02:56:12;6.10;99.90
63260;DHT22;49390;51.380;0.098;2023-12-20T02:58:41;6.10;99.90
63260;DHT22;49390;51.380;0.098;2023-12-20T03:01:08;6.10;99.90
63260;DHT22;49390;51.380;0.098;2023-12-20T03:03:36;6.10;99.90
63260;DHT22;49390;51.380;0.098;2023-12-20T03:06:04;6.10;99.90
63260;DHT22;49390;51.380;0.098;2023-12-20T03:08:32;6.10;99.90
63260;DHT22;49390;51.380;0.098;2023-12-20T03:10:59;6.00;99.90
63260;DHT22;49390;51.380;0.098;2023-12-20T03:13:27;6.10;99.90
63260;DHT22;49390;51.380;0.098;2023-12-20T03:15:55;6.00;99.90
63260;DHT22;49390;51.380;0.098;2023-12-20T03:18:23;6.00;99.90
63260;DHT22;49390;51.380;0.098;2023-12-20T03:20:51;6.00;99.90
63260;DHT22;49390;51.380;0.098;2023-12-20T03:23:19;6.00;99.90
63260;DHT22;49390;51.380;0.098;2023-12-20T03:25:47;6.00;99.90
63260;DHT22;49390;51.380;0.098;2023-12-20T03:28:15;6.00;99.90
63260;DHT22;49390;51.380;0.098;2023-12-20T03:30:43;6.00;99.90
63260;DHT22;49390;51.380;0.098;2023-12-20T03:33:11;6.00;99.90
63260;DHT22;49390;51.380;0.098;2023-12-20T03:35:39;6.00;99.90
63260;DHT22;49390;51.380;0.098;2023-12-20T03:38:07;6.00;99.90
63260;DHT22;49390;51.380;0.098;2023-12-20T03:40:35;6.00;99.90
63260;DHT22;49390;51.380;0.098;2023-12-20T03:43:03;6.00;99.90
63260;DHT22;49390;51.380;0.098;2023-12-20T03:45:31;6.00;99.90
63260;DHT22;49390;51.380;0.098;2023-12-20T03:47:58;5.90;99.90
63260;DHT22;49390;51.380;0.098;2023-12-20T03:50:27;5.90;99.90
63260;DHT22;49390;51.380;0.098;2023-12-20T03:52:54;5.90;99.90
63260;DHT22;49390;51.380;0.098;2023-12-20T03:55:22;5.90;99.90
63260;DHT22;49390;51.380;0.098;2023-12-20T03:57:50;5.90;99.90
63260;DHT22;49390;51.380;0.098;2023-12-20T04:00:18;5.90;99.90
63260;DHT22;49390;51.380;0.098;2023-12-20T04:02:46;5.90;99.90
63260;DHT22;49390;51.380;0.098;2023-12-20T04:05:14;6.00;99.90
63260;DHT22;49390;51.380;0.098;2023-12-20T04:07:42;5.90;99.90
63260;DHT22;49390;51.380;0.098;2023-12-20T04:10:10;5.90;99.90
63260;DHT22;49390;51.380;0.098;2023-12-20T04:12:38;5.90;99.90
63260;DHT22;49390;51.380;0.098;2023-12-20T04:15:06;5.90;99.90
63260;DHT22;49390;51.380;0.098;2023-12-20T04:17:37;5.90;99.90
63260;DHT22;49390;51.380;0.098;2023-12-20T04:20:06;5.80;99.90
63260;DHT22;49390;51.380;0.098;2023-12-20T04:22:34;5.90;99.90
63260;DHT22;49390;51.380;0.098;2023-12-20T04:25:02;5.90;99.90
63260;DHT22;49390;51.380;0.098;2023-12-20T04:27:29;5.90;99.90
63260;DHT22;49390;51.380;0.098;2023-12-20T04:29:57;5.90;99.90
63260;DHT22;49390;51.380;0.098;2023-12-20T04:32:25;5.90;99.90
63260;DHT22;49390;51.380;0.098;2023-12-20T04:34:53;6.00;99.90
63260;DHT22;49390;51.380;0.098;2023-12-20T04:37:20;5.90;99.90
63260;DHT22;49390;51.380;0.098;2023-12-20T04:39:49;5.90;99.90
63260;DHT22;49390;51.380;0.098;2023-12-20T04:42:17;5.90;99.90
63260;DHT22;49390;51.380;0.098;2023-12-20T04:44:44;5.90;99.90
63260;DHT22;49390;51.380;0.098;2023-12-20T04:47:12;5.90;99.90
63260;DHT22;49390;51.380;0.098;2023-12-20T04:49:40;5.90;99.90
63260;DHT22;49390;51.380;0.098;2023-12-20T04:52:08;6.00;99.90
63260;DHT22;49390;51.380;0.098;2023-12-20T04:54:35;6.00;99.90
63260;DHT22;49390;51.380;0.098;2023-12-20T04:57:03;6.00;99.90
63260;DHT22;49390;51.380;0.098;2023-12-20T04:59:31;6.00;99.90
63260;DHT22;49390;51.380;0.098;2023-12-20T05:01:59;6.00;99.90
63260;DHT22;49390;51.380;0.098;2023-12-20T05:04:27;6.00;99.90
63260;DHT22;49390;51.380;0.098;2023-12-20T05:06:55;6.20;99.90
63260;DHT22;49390;51.380;0.098;2023-12-20T05:09:23;6.00;99.90
63260;DHT22;49390;51.380;0.098;2023-12-20T05:11:50;6.00;99.90
63260;DHT22;49390;51.380;0.098;2023-12-20T05:14:18;6.00;99.90
63260;DHT22;49390;51.380;0.098;2023-12-20T05:16:46;6.00;99.90
63260;DHT22;49390;51.380;0.098;2023-12-20T05:19:13;6.00;99.90
63260;DHT22;49390;51.380;0.098;2023-12-20T05:21:41;6.00;99.90
63260;DHT22;49390;51.380;0.098;2023-12-20T05:24:09;6.00;99.90
63260;DHT22;49390;51.380;0.098;2023-12-20T05:26:37;6.00;99.90
63260;DHT22;49390;51.380;0.098;2023-12-20T05:29:05;6.00;99.90
63260;DHT22;49390;51.380;0.098;2023-12-20T05:31:32;6.00;99.90
63260;DHT22;49390;51.380;0.098;2023-12-20T05:34:00;6.00;99.90
63260;DHT22;49390;51.380;0.098;2023-12-20T05:36:28;6.00;99.90
63260;DHT22;49390;51.380;0.098;2023-12-20T05:38:56;6.00;99.90
63260;DHT22;49390;51.380;0.098;2023-12-20T05:41:23;6.00;99.90
63260;DHT22;49390;51.380;0.098;2023-12-20T05:43:51;6.00;99.90
63260;DHT22;49390;51.380;0.098;2023-12-20T05:46:19;6.00;99.90
63260;DHT22;49390;51.380;0.098;2023-12-20T05:48:47;6.00;99.90
63260;DHT22;49390;51.380;0.098;2023-12-20T05:51:16;6.00;99.90
63260;DHT22;49390;51.380;0.098;2023-12-20T05:53:44;6.00;99.90
63260;DHT22;49390;51.380;0.098;2023-12-20T05:56:12;6.00;99.90
63260;DHT22;49390;51.380;0.098;2023-12-20T05:58:41;6.00;99.90
63260;DHT22;49390;51.380;0.098;2023-12-20T06:01:08;6.00;99.90
63260;DHT22;49390;51.380;0.098;2023-12-20T06:03:36;6.00;99.90
63260;DHT22;49390;51.380;0.098;2023-12-20T06:06:06;6.00;99.90
63260;DHT22;49390;51.380;0.098;2023-12-20T06:08:43;6.00;99.90
63260;DHT22;49390;51.380;0.098;2023-12-20T06:11:11;6.00;99.90
63260;DHT22;49390;51.380;0.098;2023-12-20T06:13:39;6.00;99.90
63260;DHT22;49390;51.380;0.098;2023-12-20T06:16:07;6.00;99.90
63260;DHT22;49390;51.380;0.098;2023-12-20T06:18:35;6.00;99.90
63260;DHT22;49390;51.380;0.098;2023-12-20T06:21:04;6.00;99.90
63260;DHT22;49390;51.380;0.098;2023-12-20T06:23:32;6.00;99.90
63260;DHT22;49390;51.380;0.098;2023-12-20T06:26:00;6.00;99.90
63260;DHT22;49390;51.380;0.098;2023-12-20T06:28:28;6.10;99.90
63260;DHT22;49390;51.380;0.098;2023-12-20T06:30:56;6.10;99.90
63260;DHT22;49390;51.380;0.098;2023-12-20T06:33:25;6.10;99.90
63260;DHT22;49390;51.380;0.098;2023-12-20T06:35:52;6.10;99.90
63260;DHT22;49390;51.380;0.098;2023-12-20T06:38:20;6.10;99.90
63260;DHT22;49390;51.380;0.098;2023-12-20T06:40:48;6.10;99.90
63260;DHT22;49390;51.380;0.098;2023-12-20T06:43:16;6.10;99.90
63260;DHT22;49390;51.380;0.098;2023-12-20T06:46:04;6.10;99.90
63260;DHT22;49390;51.380;0.098;2023-12-20T06:48:32;6.10;99.90
63260;DHT22;49390;51.380;0.098;2023-12-20T06:51:00;6.10;99.90
63260;DHT22;49390;51.380;0.098;2023-12-20T06:53:29;6.20;99.90
63260;DHT22;49390;51.380;0.098;2023-12-20T06:55:57;6.20;99.90
63260;DHT22;49390;51.380;0.098;2023-12-20T06:58:25;6.20;99.90
63260;DHT22;49390;51.380;0.098;2023-12-20T07:00:52;6.20;99.90
63260;DHT22;49390;51.380;0.098;2023-12-20T07:03:21;6.20;99.90
63260;DHT22;49390;51.380;0.098;2023-12-20T07:05:49;6.20;99.90
63260;DHT22;49390;51.380;0.098;2023-12-20T07:08:17;6.20;99.90
63260;DHT22;49390;51.380;0.098;2023-12-20T07:10:44;6.20;99.90
63260;DHT22;49390;51.380;0.098;2023-12-20T07:13:13;6.20;99.90
63260;DHT22;49390;51.380;0.098;2023-12-20T07:15:41;6.20;99.90
63260;DHT22;49390;51.380;0.098;2023-12-20T07:18:11;6.20;99.90
63260;DHT22;49390;51.380;0.098;2023-12-20T07:20:39;6.30;99.90
63260;DHT22;49390;51.380;0.098;2023-12-20T07:23:07;6.30;99.90
63260;DHT22;49390;51.380;0.098;2023-12-20T07:25:34;6.30;99.90
63260;DHT22;49390;51.380;0.098;2023-12-20T07:28:02;6.30;99.90
63260;DHT22;49390;51.380;0.098;2023-12-20T07:30:30;6.30;99.90
63260;DHT22;49390;51.380;0.098;2023-12-20T07:32:58;6.30;99.90
63260;DHT22;49390;51.380;0.098;2023-12-20T07:35:26;6.30;99.90
63260;DHT22;49390;51.380;0.098;2023-12-20T07:37:54;6.30;99.90
63260;DHT22;49390;51.380;0.098;2023-12-20T07:40:21;6.30;99.90
63260;DHT22;49390;51.380;0.098;2023-12-20T07:42:51;6.30;99.90
63260;DHT22;49390;51.380;0.098;2023-12-20T07:45:19;6.40;99.90
63260;DHT22;49390;51.380;0.098;2023-12-20T07:47:46;6.40;99.90
63260;DHT22;49390;51.380;0.098;2023-12-20T07:50:14;6.30;99.90
63260;DHT22;49390;51.380;0.098;2023-12-20T07:52:43;6.40;99.90
63260;DHT22;49390;51.380;0.098;2023-12-20T07:55:10;6.40;99.90
63260;DHT22;49390;51.380;0.098;2023-12-20T07:57:39;6.40;99.90
63260;DHT22;49390;51.380;0.098;2023-12-20T08:00:07;6.50;99.90
63260;DHT22;49390;51.380;0.098;2023-12-20T08:02:35;6.50;99.90
63260;DHT22;49390;51.380;0.098;2023-12-20T08:05:02;6.50;99.90
63260;DHT22;49390;51.380;0.098;2023-12-20T08:07:30;6.50;99.90
63260;DHT22;49390;51.380;0.098;2023-12-20T08:09:58;6.50;99.90
63260;DHT22;49390;51.380;0.098;2023-12-20T08:12:26;6.60;99.90
63260;DHT22;49390;51.380;0.098;2023-12-20T08:14:55;6.50;99.90
63260;DHT22;49390;51.380;0.098;2023-12-20T08:17:24;6.50;99.90
63260;DHT22;49390;51.380;0.098;2023-12-20T08:19:52;6.60;99.90
63260;DHT22;49390;51.380;0.098;2023-12-20T08:22:20;6.60;99.90
63260;DHT22;49390;51.380;0.098;2023-12-20T08:24:48;6.60;99.90
63260;DHT22;49390;51.380;0.098;2023-12-20T08:27:16;6.60;99.90
63260;DHT22;49390;51.380;0.098;2023-12-20T08:29:46;6.60;99.90
63260;DHT22;49390;51.380;0.098;2023-12-20T08:32:14;6.60;99.90
63260;DHT22;49390;51.380;0.098;2023-12-20T08:34:42;6.60;99.90
63260;DHT22;49390;51.380;0.098;2023-12-20T08:37:10;6.70;99.90
63260;DHT22;49390;51.380;0.098;2023-12-20T08:39:37;6.70;99.90
63260;DHT22;49390;51.380;0.098;2023-12-20T08:42:06;6.70;99.90
63260;DHT22;49390;51.380;0.098;2023-12-20T08:44:33;6.70;99.90
63260;DHT22;49390;51.380;0.098;2023-12-20T08:47:01;6.70;99.90
63260;DHT22;49390;51.380;0.098;2023-12-20T08:49:29;6.80;99.90
63260;DHT22;49390;51.380;0.098;2023-12-20T08:51:57;6.80;99.90
63260;DHT22;49390;51.380;0.098;2023-12-20T08:54:25;6.80;99.90
63260;DHT22;49390;51.380;0.098;2023-12-20T08:56:53;6.80;99.90
63260;DHT22;49390;51.380;0.098;2023-12-20T08:59:20;6.80;99.90
63260;DHT22;49390;51.380;0.098;2023-12-20T09:01:48;6.80;99.90
63260;DHT22;49390;51.380;0.098;2023-12-20T09:04:21;6.90;99.90
63260;DHT22;49390;51.380;0.098;2023-12-20T09:06:49;6.90;99.90
63260;DHT22;49390;51.380;0.098;2023-12-20T09:09:17;7.00;99.90
63260;DHT22;49390;51.380;0.098;2023-12-20T09:11:46;7.10;99.90
63260;DHT22;49390;51.380;0.098;2023-12-20T09:14:15;7.20;99.90
63260;DHT22;49390;51.380;0.098;2023-12-20T09:16:43;7.20;99.90
63260;DHT22;49390;51.380;0.098;2023-12-20T09:19:11;7.30;99.90
63260;DHT22;49390;51.380;0.098;2023-12-20T09:21:39;7.40;99.90
63260;DHT22;49390;51.380;0.098;2023-12-20T09:24:06;7.40;99.90
63260;DHT22;49390;51.380;0.098;2023-12-20T09:26:34;7.50;99.90
63260;DHT22;49390;51.380;0.098;2023-12-20T09:29:02;7.50;99.90
63260;DHT22;49390;51.380;0.098;2023-12-20T09:31:30;7.60;99.90
63260;DHT22;49390;51.380;0.098;2023-12-20T09:33:58;7.70;99.90
63260;DHT22;49390;51.380;0.098;2023-12-20T09:36:26;7.70;99.90
63260;DHT22;49390;51.380;0.098;2023-12-20T09:38:54;7.80;99.90
63260;DHT22;49390;51.380;0.098;2023-12-20T09:41:23;7.90;99.90
63260;DHT22;49390;51.380;0.098;2023-12-20T09:43:54;7.90;99.90
63260;DHT22;49390;51.380;0.098;2023-12-20T09:46:24;8.00;99.90
63260;DHT22;49390;51.380;0.098;2023-12-20T09:48:54;8.10;99.90
63260;DHT22;49390;51.380;0.098;2023-12-20T09:51:22;8.10;99.90
63260;DHT22;49390;51.380;0.098;2023-12-20T09:53:52;8.20;99.90
63260;DHT22;49390;51.380;0.098;2023-12-20T09:56:21;8.30;99.90
63260;DHT22;49390;51.380;0.098;2023-12-20T09:58:50;8.40;99.90
63260;DHT22;49390;51.380;0.098;2023-12-20T10:01:18;8.40;99.90
63260;DHT22;49390;51.380;0.098;2023-12-20T10:03:46;8.50;99.90
63260;DHT22;49390;51.380;0.098;2023-12-20T10:06:14;8.50;99.90
63260;DHT22;49390;51.380;0.098;2023-12-20T10:08:42;8.60;99.90
63260;DHT22;49390;51.380;0.098;2023-12-20T10:11:10;8.60;99.90
63260;DHT22;49390;51.380;0.098;2023-12-20T10:13:43;8.60;99.90
63260;DHT22;49390;51.380;0.098;2023-12-20T10:16:11;8.60;99.90
63260;DHT22;49390;51.380;0.098;2023-12-20T10:18:39;8.70;99.90
63260;DHT22;49390;51.380;0.098;2023-12-20T10:21:07;8.70;99.90
63260;DHT22;49390;51.380;0.098;2023-12-20T10:23:38;8.70;99.90
63260;DHT22;49390;51.380;0.098;2023-12-20T10:26:07;8.70;99.90
63260;DHT22;49390;51.380;0.098;2023-12-20T10:28:35;8.80;99.90
63260;DHT22;49390;51.380;0.098;2023-12-20T10:31:05;8.80;99.90
63260;DHT22;49390;51.380;0.098;2023-12-20T10:33:33;8.80;99.90
63260;DHT22;49390;51.380;0.098;2023-12-20T10:36:01;8.80;99.90
63260;DHT22;49390;51.380;0.098;2023-12-20T10:38:29;8.80;99.90
63260;DHT22;49390;51.380;0.098;2023-12-20T10:40:58;8.90;99.90
63260;DHT22;49390;51.380;0.098;2023-12-20T10:43:28;9.00;99.90
63260;DHT22;49390;51.380;0.098;2023-12-20T10:45:59;8.90;99.90
63260;DHT22;49390;51.380;0.098;2023-12-20T10:48:27;9.00;99.90
63260;DHT22;49390;51.380;0.098;2023-12-20T10:50:58;9.00;99.90
63260;DHT22;49390;51.380;0.098;2023-12-20T10:53:26;9.10;99.90
63260;DHT22;49390;51.380;0.098;2023-12-20T10:55:55;9.20;99.90
63260;DHT22;49390;51.380;0.098;2023-12-20T10:58:26;9.20;99.90
63260;DHT22;49390;51.380;0.098;2023-12-20T11:01:00;9.20;99.90
63260;DHT22;49390;51.380;0.098;2023-12-20T11:03:35;9.30;99.90
63260;DHT22;49390;51.380;0.098;2023-12-20T11:06:16;9.30;99.90
63260;DHT22;49390;51.380;0.098;2023-12-20T11:08:52;9.30;99.90
63260;DHT22;49390;51.380;0.098;2023-12-20T11:14:23;9.30;99.90
63260;DHT22;49390;51.380;0.098;2023-12-20T11:17:06;9.40;99.90
63260;DHT22;49390;51.380;0.098;2023-12-20T11:19:42;9.30;99.90
63260;DHT22;49390;51.380;0.098;2023-12-20T11:22:11;9.40;99.90
63260;DHT22;49390;51.380;0.098;2023-12-20T11:24:44;9.40;99.90
63260;DHT22;49390;51.380;0.098;2023-12-20T11:27:14;9.40;99.90
63260;DHT22;49390;51.380;0.098;2023-12-20T11:29:42;9.40;99.90
63260;DHT22;49390;51.380;0.098;2023-12-20T11:35:18;9.40;99.90
63260;DHT22;49390;51.380;0.098;2023-12-20T11:37:45;9.50;99.90
63260;DHT22;49390;51.380;0.098;2023-12-20T11:40:16;9.50;99.90
63260;DHT22;49390;51.380;0.098;2023-12-20T11:42:48;9.50;99.90
63260;DHT22;49390;51.380;0.098;2023-12-20T11:45:17;9.50;99.90
63260;DHT22;49390;51.380;0.098;2023-12-20T11:47:48;9.60;99.90
63260;DHT22;49390;51.380;0.098;2023-12-20T11:50:20;9.60;99.90
63260;DHT22;49390;51.380;0.098;2023-12-20T11:52:49;9.70;99.90
63260;DHT22;49390;51.380;0.098;2023-12-20T11:55:17;9.70;99.90
63260;DHT22;49390;51.380;0.098;2023-12-20T11:57:45;9.70;99.90
63260;DHT22;49390;51.380;0.098;2023-12-20T12:00:14;9.80;99.90
63260;DHT22;49390;51.380;0.098;2023-12-20T12:02:42;9.90;99.90
63260;DHT22;49390;51.380;0.098;2023-12-20T12:05:13;9.90;99.90
63260;DHT22;49390;51.380;0.098;2023-12-20T12:07:41;10.00;99.90
63260;DHT22;49390;51.380;0.098;2023-12-20T12:10:08;10.00;99.90
63260;DHT22;49390;51.380;0.098;2023-12-20T12:12:37;10.10;99.90
63260;DHT22;49390;51.380;0.098;2023-12-20T12:15:05;10.20;99.90
63260;DHT22;49390;51.380;0.098;2023-12-20T12:17:33;10.20;99.90
63260;DHT22;49390;51.380;0.098;2023-12-20T12:20:04;10.30;99.90
63260;DHT22;49390;51.380;0.098;2023-12-20T12:22:32;10.30;99.90
63260;DHT22;49390;51.380;0.098;2023-12-20T12:25:11;10.30;99.90
63260;DHT22;49390;51.380;0.098;2023-12-20T12:27:41;10.40;99.90
63260;DHT22;49390;51.380;0.098;2023-12-20T12:30:09;10.40;99.90
63260;DHT22;49390;51.380;0.098;2023-12-20T12:32:39;10.40;99.90
63260;DHT22;49390;51.380;0.098;2023-12-20T12:35:07;10.30;99.90
63260;DHT22;49390;51.380;0.098;2023-12-20T12:37:38;10.30;99.90
63260;DHT22;49390;51.380;0.098;2023-12-20T12:40:11;10.40;99.90
63260;DHT22;49390;51.380;0.098;2023-12-20T12:42:40;10.40;99.90
63260;DHT22;49390;51.380;0.098;2023-12-20T12:45:09;10.40;99.90
63260;DHT22;49390;51.380;0.098;2023-12-20T12:47:37;10.60;99.90
63260;DHT22;49390;51.380;0.098;2023-12-20T12:50:05;10.80;99.90
63260;DHT22;49390;51.380;0.098;2023-12-20T12:52:34;10.80;99.90
63260;DHT22;49390;51.380;0.098;2023-12-20T12:55:03;10.80;99.90
63260;DHT22;49390;51.380;0.098;2023-12-20T12:57:33;10.90;99.90
63260;DHT22;49390;51.380;0.098;2023-12-20T13:00:01;11.00;99.90
63260;DHT22;49390;51.380;0.098;2023-12-20T13:02:31;11.00;99.90
63260;DHT22;49390;51.380;0.098;2023-12-20T13:04:58;11.00;99.90
63260;DHT22;49390;51.380;0.098;2023-12-20T13:07:28;11.00;99.90
63260;DHT22;49390;51.380;0.098;2023-12-20T13:09:56;11.00;99.90
63260;DHT22;49390;51.380;0.098;2023-12-20T13:12:24;11.10;99.90
63260;DHT22;49390;51.380;0.098;2023-12-20T13:14:52;11.00;99.90
63260;DHT22;49390;51.380;0.098;2023-12-20T13:17:21;11.10;99.90
63260;DHT22;49390;51.380;0.098;2023-12-20T13:19:48;11.10;99.90
63260;DHT22;49390;51.380;0.098;2023-12-20T13:22:17;11.20;99.90
63260;DHT22;49390;51.380;0.098;2023-12-20T13:24:46;11.20;99.90
63260;DHT22;49390;51.380;0.098;2023-12-20T13:27:13;11.20;99.90
63260;DHT22;49390;51.380;0.098;2023-12-20T13:29:41;11.20;99.90
63260;DHT22;49390;51.380;0.098;2023-12-20T13:32:09;11.20;99.90
63260;DHT22;49390;51.380;0.098;2023-12-20T13:34:37;11.20;99.90
63260;DHT22;49390;51.380;0.098;2023-12-20T13:37:05;11.20;99.90
63260;DHT22;49390;51.380;0.098;2023-12-20T13:39:32;11.20;99.90
63260;DHT22;49390;51.380;0.098;2023-12-20T13:42:01;11.20;99.90
63260;DHT22;49390;51.380;0.098;2023-12-20T13:44:28;11.20;99.90
63260;DHT22;49390;51.380;0.098;2023-12-20T13:46:56;11.20;99.90
63260;DHT22;49390;51.380;0.098;2023-12-20T13:49:24;11.20;99.90
63260;DHT22;49390;51.380;0.098;2023-12-20T13:51:54;11.10;99.90
63260;DHT22;49390;51.380;0.098;2023-12-20T13:54:25;11.10;99.90
63260;DHT22;49390;51.380;0.098;2023-12-20T13:56:53;11.10;99.90
63260;DHT22;49390;51.380;0.098;2023-12-20T13:59:38;11.10;99.90
63260;DHT22;49390;51.380;0.098;2023-12-20T14:02:07;11.10;99.90
63260;DHT22;49390;51.380;0.098;2023-12-20T14:04:34;11.00;99.90
63260;DHT22;49390;51.380;0.098;2023-12-20T14:07:15;11.00;99.90
63260;DHT22;49390;51.380;0.098;2023-12-20T14:09:43;11.00;99.90
63260;DHT22;49390;51.380;0.098;2023-12-20T14:12:14;11.00;99.90
63260;DHT22;49390;51.380;0.098;2023-12-20T14:14:42;11.00;99.90
63260;DHT22;49390;51.380;0.098;2023-12-20T14:17:12;11.00;99.90
63260;DHT22;49390;51.380;0.098;2023-12-20T14:19:40;11.00;99.90
63260;DHT22;49390;51.380;0.098;2023-12-20T14:22:08;11.00;99.90
63260;DHT22;49390;51.380;0.098;2023-12-20T14:24:36;11.00;99.90
63260;DHT22;49390;51.380;0.098;2023-12-20T14:27:04;10.90;99.90
63260;DHT22;49390;51.380;0.098;2023-12-20T14:29:32;10.90;99.90
63260;DHT22;49390;51.380;0.098;2023-12-20T14:31:59;10.90;99.90
63260;DHT22;49390;51.380;0.098;2023-12-20T14:34:30;10.90;99.90
63260;DHT22;49390;51.380;0.098;2023-12-20T14:36:58;10.90;99.90
63260;DHT22;49390;51.380;0.098;2023-12-20T14:39:26;10.90;99.90
63260;DHT22;49390;51.380;0.098;2023-12-20T14:41:53;11.00;99.90
63260;DHT22;49390;51.380;0.098;2023-12-20T14:44:21;11.00;99.90
63260;DHT22;49390;51.380;0.098;2023-12-20T14:46:50;10.90;99.90
63260;DHT22;49390;51.380;0.098;2023-12-20T14:49:18;11.00;99.90
63260;DHT22;49390;51.380;0.098;2023-12-20T14:51:46;11.00;99.90
63260;DHT22;49390;51.380;0.098;2023-12-20T14:54:15;11.10;99.90
63260;DHT22;49390;51.380;0.098;2023-12-20T14:56:43;11.00;99.90
63260;DHT22;49390;51.380;0.098;2023-12-20T14:59:11;10.90;99.90
63260;DHT22;49390;51.380;0.098;2023-12-20T15:01:39;10.90;99.90
63260;DHT22;49390;51.380;0.098;2023-12-20T15:04:10;10.90;99.90
63260;DHT22;49390;51.380;0.098;2023-12-20T15:06:39;10.90;99.90
63260;DHT22;49390;51.380;0.098;2023-12-20T15:09:06;10.90;99.90
63260;DHT22;49390;51.380;0.098;2023-12-20T15:11:36;10.90;99.90
63260;DHT22;49390;51.380;0.098;2023-12-20T15:14:03;10.90;99.90
63260;DHT22;49390;51.380;0.098;2023-12-20T15:16:31;11.00;99.90
63260;DHT22;49390;51.380;0.098;2023-12-20T15:18:59;10.90;99.90
63260;DHT22;49390;51.380;0.098;2023-12-20T15:21:27;10.90;99.90
63260;DHT22;49390;51.380;0.098;2023-12-20T15:24:01;10.80;99.90
63260;DHT22;49390;51.380;0.098;2023-12-20T15:26:43;10.80;99.90
63260;DHT22;49390;51.380;0.098;2023-12-20T15:29:11;10.90;99.90
63260;DHT22;49390;51.380;0.098;2023-12-20T15:31:44;10.90;99.90
63260;DHT22;49390;51.380;0.098;2023-12-20T15:34:13;10.80;99.90
63260;DHT22;49390;51.380;0.098;2023-12-20T15:36:42;10.80;99.90
63260;DHT22;49390;51.380;0.098;2023-12-20T15:39:10;10.80;99.90
63260;DHT22;49390;51.380;0.098;2023-12-20T15:41:41;10.80;99.90
63260;DHT22;49390;51.380;0.098;2023-12-20T15:44:09;10.80;99.90
63260;DHT22;49390;51.380;0.098;2023-12-20T15:46:38;10.70;99.90
63260;DHT22;49390;51.380;0.098;2023-12-20T15:49:06;10.80;99.90
63260;DHT22;49390;51.380;0.098;2023-12-20T15:51:34;10.80;99.90
63260;DHT22;49390;51.380;0.098;2023-12-20T15:54:03;10.80;99.90
63260;DHT22;49390;51.380;0.098;2023-12-20T15:56:34;10.70;99.90